Terminal Aerodrome Forecast
Issued by NWS

Home | Current Version | Previous Version | Graphics & Text | Print | Product List | Glossary On
Versions: 1 2 3 4 5 6 7 8 9 10 11 12 13 14 15 16 17 18 19 20 21 22 23 24
000
FTUS43 KABR 270500
TAFMBG
TAF
KMBG 270524Z 2706/2806 11008KT P6SM SCT050 BKN120
     FM270900 14012KT P6SM SCT035 BKN050 OVC080
     FM271300 16014KT 3SM -SN BR BKN020 OVC035
     FM271900 15014KT P6SM OVC030
     FM280100 11008KT P6SM OVC100=

USA.gov is the U.S. government's official web portal to all federal, state and local government web resources and services.